02XS weather

Public forecast

Using degrees Fahrenheit for public forecast. Weather courtesy of forecast.io.

Closest aviation weather report (METAR) to Seidel Ranch Airport

Closest report is Austin Bergstrom International Airport, 2.8 nm (5.2 km) N. Retrieved 2020/08/12 13:53 UTC (1 hour ago):

KAUS 121353Z 21011G18KT 10SM SCT014 28/24 A2999 RMK AO2 SLP143 T02830239

Closest aviation forecast (TAF) to Seidel Ranch Airport

Closest forecast is Austin Bergstrom International Airport, 2.8 nm (5.2 km) N. Retrieved 2020/08/12 12:34 UTC (2 hours ago):

TAF KAUS 121132Z 1212/1318 19007KT P6SM SCT015 TEMPO 1212/1215 BKN015 FM121500 21012G22KT P6SM SCT050 FM122300 16011KT P6SM FEW060 FM130300 15014KT P6SM SKC